sensor_id;sensor_type;location;lat;lon;timestamp;P1;durP1;ratioP1;P2;durP2;ratioP2
10277;SDS011;5184;51.376;7.148;2022-08-01T00:00:51;20.00;;;18.00;;
10277;SDS011;5184;51.376;7.148;2022-08-01T00:03:18;19.17;;;17.07;;
10277;SDS011;5184;51.376;7.148;2022-08-01T00:05:45;18.60;;;16.53;;
10277;SDS011;5184;51.376;7.148;2022-08-01T00:08:13;20.17;;;17.90;;
10277;SDS011;5184;51.376;7.148;2022-08-01T00:10:40;20.93;;;18.50;;
10277;SDS011;5184;51.376;7.148;2022-08-01T00:13:07;22.23;;;19.60;;
10277;SDS011;5184;51.376;7.148;2022-08-01T00:15:33;22.23;;;19.87;;
10277;SDS011;5184;51.376;7.148;2022-08-01T00:18:00;23.90;;;21.40;;
10277;SDS011;5184;51.376;7.148;2022-08-01T00:20:27;23.10;;;20.60;;
10277;SDS011;5184;51.376;7.148;2022-08-01T00:22:55;23.17;;;20.93;;
10277;SDS011;5184;51.376;7.148;2022-08-01T00:25:21;24.23;;;21.77;;
10277;SDS011;5184;51.376;7.148;2022-08-01T00:27:48;23.73;;;21.37;;
10277;SDS011;5184;51.376;7.148;2022-08-01T00:30:15;26.47;;;23.33;;
10277;SDS011;5184;51.376;7.148;2022-08-01T00:32:42;28.40;;;25.50;;
10277;SDS011;5184;51.376;7.148;2022-08-01T00:35:09;26.23;;;23.53;;
10277;SDS011;5184;51.376;7.148;2022-08-01T00:37:35;27.17;;;24.43;;
10277;SDS011;5184;51.376;7.148;2022-08-01T00:40:02;27.97;;;25.17;;
10277;SDS011;5184;51.376;7.148;2022-08-01T00:42:29;28.77;;;25.60;;
10277;SDS011;5184;51.376;7.148;2022-08-01T00:44:56;31.87;;;26.43;;
10277;SDS011;5184;51.376;7.148;2022-08-01T00:47:23;30.77;;;27.00;;
10277;SDS011;5184;51.376;7.148;2022-08-01T00:49:49;29.57;;;26.60;;
10277;SDS011;5184;51.376;7.148;2022-08-01T00:52:16;32.50;;;29.10;;
10277;SDS011;5184;51.376;7.148;2022-08-01T00:54:43;31.90;;;28.60;;
10277;SDS011;5184;51.376;7.148;2022-08-01T00:57:10;33.83;;;30.07;;
10277;SDS011;5184;51.376;7.148;2022-08-01T00:59:37;32.83;;;29.43;;
10277;SDS011;5184;51.376;7.148;2022-08-01T01:02:03;33.83;;;30.23;;
10277;SDS011;5184;51.376;7.148;2022-08-01T01:04:30;37.10;;;31.10;;
10277;SDS011;5184;51.376;7.148;2022-08-01T01:07:00;36.60;;;31.17;;
10277;SDS011;5184;51.376;7.148;2022-08-01T01:09:44;32.57;;;29.07;;
10277;SDS011;5184;51.376;7.148;2022-08-01T01:12:13;35.60;;;29.50;;
10277;SDS011;5184;51.376;7.148;2022-08-01T01:14:44;35.13;;;30.33;;
10277;SDS011;5184;51.376;7.148;2022-08-01T01:17:08;35.97;;;29.33;;
10277;SDS011;5184;51.376;7.148;2022-08-01T01:19:36;34.23;;;28.83;;
10277;SDS011;5184;51.376;7.148;2022-08-01T01:22:41;33.90;;;28.83;;
10277;SDS011;5184;51.376;7.148;2022-08-01T01:24:58;32.37;;;28.87;;
10277;SDS011;5184;51.376;7.148;2022-08-01T01:30:23;29.27;;;25.83;;
10277;SDS011;5184;51.376;7.148;2022-08-01T01:32:49;29.60;;;25.87;;
10277;SDS011;5184;51.376;7.148;2022-08-01T01:35:19;28.77;;;25.63;;
10277;SDS011;5184;51.376;7.148;2022-08-01T01:37:47;29.40;;;25.27;;
10277;SDS011;5184;51.376;7.148;2022-08-01T01:40:13;31.67;;;27.70;;
10277;SDS011;5184;51.376;7.148;2022-08-01T01:42:40;30.23;;;26.20;;
10277;SDS011;5184;51.376;7.148;2022-08-01T01:45:06;32.27;;;28.37;;
10277;SDS011;5184;51.376;7.148;2022-08-01T01:47:33;32.27;;;28.60;;
10277;SDS011;5184;51.376;7.148;2022-08-01T01:50:00;32.17;;;28.60;;
10277;SDS011;5184;51.376;7.148;2022-08-01T01:52:28;34.07;;;28.50;;
10277;SDS011;5184;51.376;7.148;2022-08-01T01:54:54;34.13;;;29.73;;
10277;SDS011;5184;51.376;7.148;2022-08-01T01:57:22;33.43;;;29.87;;
10277;SDS011;5184;51.376;7.148;2022-08-01T01:59:49;36.60;;;30.17;;
10277;SDS011;5184;51.376;7.148;2022-08-01T02:02:16;33.73;;;29.83;;
10277;SDS011;5184;51.376;7.148;2022-08-01T02:04:43;34.40;;;29.60;;
10277;SDS011;5184;51.376;7.148;2022-08-01T02:07:10;33.13;;;29.03;;
10277;SDS011;5184;51.376;7.148;2022-08-01T02:09:37;39.83;;;30.63;;
10277;SDS011;5184;51.376;7.148;2022-08-01T02:12:04;37.90;;;30.07;;
10277;SDS011;5184;51.376;7.148;2022-08-01T02:14:32;35.83;;;29.80;;
10277;SDS011;5184;51.376;7.148;2022-08-01T02:16:58;39.03;;;31.50;;
10277;SDS011;5184;51.376;7.148;2022-08-01T02:19:26;37.40;;;31.57;;
10277;SDS011;5184;51.376;7.148;2022-08-01T02:21:55;40.40;;;31.70;;
10277;SDS011;5184;51.376;7.148;2022-08-01T02:24:43;43.60;;;33.10;;
10277;SDS011;5184;51.376;7.148;2022-08-01T02:27:06;39.93;;;31.93;;
10277;SDS011;5184;51.376;7.148;2022-08-01T02:29:36;39.43;;;31.33;;
10277;SDS011;5184;51.376;7.148;2022-08-01T02:31:59;35.73;;;30.53;;
10277;SDS011;5184;51.376;7.148;2022-08-01T02:34:26;38.20;;;32.67;;
10277;SDS011;5184;51.376;7.148;2022-08-01T02:36:53;39.93;;;31.47;;
10277;SDS011;5184;51.376;7.148;2022-08-01T02:39:21;36.20;;;31.13;;
10277;SDS011;5184;51.376;7.148;2022-08-01T02:41:48;39.20;;;32.53;;
10277;SDS011;5184;51.376;7.148;2022-08-01T02:44:16;39.53;;;31.90;;
10277;SDS011;5184;51.376;7.148;2022-08-01T02:46:44;41.37;;;32.33;;
10277;SDS011;5184;51.376;7.148;2022-08-01T02:49:10;41.07;;;31.80;;
10277;SDS011;5184;51.376;7.148;2022-08-01T02:51:36;38.33;;;31.37;;
10277;SDS011;5184;51.376;7.148;2022-08-01T02:54:03;43.27;;;32.20;;
10277;SDS011;5184;51.376;7.148;2022-08-01T02:56:29;37.83;;;32.27;;
10277;SDS011;5184;51.376;7.148;2022-08-01T02:59:05;44.13;;;32.83;;
10277;SDS011;5184;51.376;7.148;2022-08-01T03:01:31;39.03;;;31.57;;
10277;SDS011;5184;51.376;7.148;2022-08-01T03:03:57;37.77;;;32.17;;
10277;SDS011;5184;51.376;7.148;2022-08-01T03:06:23;38.87;;;31.43;;
10277;SDS011;5184;51.376;7.148;2022-08-01T03:08:50;37.67;;;30.93;;
10277;SDS011;5184;51.376;7.148;2022-08-01T03:11:16;41.23;;;30.83;;
10277;SDS011;5184;51.376;7.148;2022-08-01T03:13:44;40.37;;;32.57;;
10277;SDS011;5184;51.376;7.148;2022-08-01T03:16:11;40.60;;;32.13;;
10277;SDS011;5184;51.376;7.148;2022-08-01T03:18:38;41.27;;;31.80;;
10277;SDS011;5184;51.376;7.148;2022-08-01T03:21:04;40.87;;;30.87;;
10277;SDS011;5184;51.376;7.148;2022-08-01T03:23:31;38.20;;;31.47;;
10277;SDS011;5184;51.376;7.148;2022-08-01T03:25:58;41.13;;;30.73;;
10277;SDS011;5184;51.376;7.148;2022-08-01T03:28:26;43.37;;;31.80;;
10277;SDS011;5184;51.376;7.148;2022-08-01T03:30:52;38.73;;;31.00;;
10277;SDS011;5184;51.376;7.148;2022-08-01T03:33:19;43.10;;;31.73;;
10277;SDS011;5184;51.376;7.148;2022-08-01T03:35:46;44.10;;;32.77;;
10277;SDS011;5184;51.376;7.148;2022-08-01T03:38:13;42.10;;;30.90;;
10277;SDS011;5184;51.376;7.148;2022-08-01T03:40:40;43.73;;;31.03;;
10277;SDS011;5184;51.376;7.148;2022-08-01T03:43:08;42.63;;;31.53;;
10277;SDS011;5184;51.376;7.148;2022-08-01T03:45:35;43.23;;;32.80;;
10277;SDS011;5184;51.376;7.148;2022-08-01T03:48:03;39.27;;;30.07;;
10277;SDS011;5184;51.376;7.148;2022-08-01T03:50:30;38.57;;;30.80;;
10277;SDS011;5184;51.376;7.148;2022-08-01T03:52:57;37.50;;;31.20;;
10277;SDS011;5184;51.376;7.148;2022-08-01T03:55:23;44.47;;;31.33;;
10277;SDS011;5184;51.376;7.148;2022-08-01T03:57:49;39.97;;;30.27;;
10277;SDS011;5184;51.376;7.148;2022-08-01T04:00:17;42.10;;;31.43;;
10277;SDS011;5184;51.376;7.148;2022-08-01T04:02:46;39.97;;;31.07;;
10277;SDS011;5184;51.376;7.148;2022-08-01T04:05:14;44.23;;;31.80;;
10277;SDS011;5184;51.376;7.148;2022-08-01T04:07:40;40.93;;;31.17;;
10277;SDS011;5184;51.376;7.148;2022-08-01T04:10:07;40.10;;;30.43;;
10277;SDS011;5184;51.376;7.148;2022-08-01T04:12:33;46.97;;;31.10;;
10277;SDS011;5184;51.376;7.148;2022-08-01T04:15:00;37.53;;;29.70;;
10277;SDS011;5184;51.376;7.148;2022-08-01T04:17:26;39.37;;;29.77;;
10277;SDS011;5184;51.376;7.148;2022-08-01T04:19:53;45.33;;;31.00;;
10277;SDS011;5184;51.376;7.148;2022-08-01T04:22:20;38.03;;;30.63;;
10277;SDS011;5184;51.376;7.148;2022-08-01T04:24:47;37.73;;;29.73;;
10277;SDS011;5184;51.376;7.148;2022-08-01T04:27:16;40.83;;;31.57;;
10277;SDS011;5184;51.376;7.148;2022-08-01T04:29:41;38.57;;;30.20;;
10277;SDS011;5184;51.376;7.148;2022-08-01T04:32:08;41.40;;;30.80;;
10277;SDS011;5184;51.376;7.148;2022-08-01T04:34:35;40.17;;;31.77;;
10277;SDS011;5184;51.376;7.148;2022-08-01T04:37:01;38.97;;;30.47;;
10277;SDS011;5184;51.376;7.148;2022-08-01T04:39:30;37.47;;;30.87;;
10277;SDS011;5184;51.376;7.148;2022-08-01T04:41:57;38.40;;;30.97;;
10277;SDS011;5184;51.376;7.148;2022-08-01T04:44:23;37.27;;;30.87;;
10277;SDS011;5184;51.376;7.148;2022-08-01T04:46:50;35.40;;;29.30;;
10277;SDS011;5184;51.376;7.148;2022-08-01T04:49:16;36.90;;;30.27;;
10277;SDS011;5184;51.376;7.148;2022-08-01T04:51:50;36.73;;;28.87;;
10277;SDS011;5184;51.376;7.148;2022-08-01T04:54:17;42.77;;;30.70;;
10277;SDS011;5184;51.376;7.148;2022-08-01T04:56:44;37.13;;;29.23;;
10277;SDS011;5184;51.376;7.148;2022-08-01T04:59:10;39.67;;;29.93;;
10277;SDS011;5184;51.376;7.148;2022-08-01T05:01:47;39.50;;;30.40;;
10277;SDS011;5184;51.376;7.148;2022-08-01T05:04:09;36.73;;;29.47;;
10277;SDS011;5184;51.376;7.148;2022-08-01T05:06:36;35.50;;;29.87;;
10277;SDS011;5184;51.376;7.148;2022-08-01T05:09:02;37.53;;;29.03;;
10277;SDS011;5184;51.376;7.148;2022-08-01T05:11:29;33.77;;;27.27;;
10277;SDS011;5184;51.376;7.148;2022-08-01T05:13:56;36.93;;;28.67;;
10277;SDS011;5184;51.376;7.148;2022-08-01T05:16:23;38.87;;;29.53;;
10277;SDS011;5184;51.376;7.148;2022-08-01T05:18:50;34.77;;;27.87;;
10277;SDS011;5184;51.376;7.148;2022-08-01T05:21:16;35.83;;;28.67;;
10277;SDS011;5184;51.376;7.148;2022-08-01T05:23:43;33.00;;;27.17;;
10277;SDS011;5184;51.376;7.148;2022-08-01T05:26:11;32.53;;;27.13;;
10277;SDS011;5184;51.376;7.148;2022-08-01T05:28:37;35.37;;;27.37;;
10277;SDS011;5184;51.376;7.148;2022-08-01T05:31:06;36.80;;;28.30;;
10277;SDS011;5184;51.376;7.148;2022-08-01T05:33:33;36.57;;;26.43;;
10277;SDS011;5184;51.376;7.148;2022-08-01T05:36:00;33.67;;;26.33;;
10277;SDS011;5184;51.376;7.148;2022-08-01T05:38:26;30.87;;;25.27;;
10277;SDS011;5184;51.376;7.148;2022-08-01T05:40:53;34.77;;;25.93;;
10277;SDS011;5184;51.376;7.148;2022-08-01T05:43:20;28.83;;;22.37;;
10277;SDS011;5184;51.376;7.148;2022-08-01T05:45:47;29.93;;;21.97;;
10277;SDS011;5184;51.376;7.148;2022-08-01T05:48:13;28.20;;;22.47;;
10277;SDS011;5184;51.376;7.148;2022-08-01T05:50:40;29.67;;;22.57;;
10277;SDS011;5184;51.376;7.148;2022-08-01T05:53:07;25.30;;;20.47;;
10277;SDS011;5184;51.376;7.148;2022-08-01T05:55:34;25.23;;;20.40;;
10277;SDS011;5184;51.376;7.148;2022-08-01T05:58:01;25.57;;;20.67;;
10277;SDS011;5184;51.376;7.148;2022-08-01T06:00:27;25.17;;;19.70;;
10277;SDS011;5184;51.376;7.148;2022-08-01T06:02:54;26.00;;;18.00;;
10277;SDS011;5184;51.376;7.148;2022-08-01T06:05:21;27.07;;;20.23;;
10277;SDS011;5184;51.376;7.148;2022-08-01T06:07:48;24.13;;;21.37;;
10277;SDS011;5184;51.376;7.148;2022-08-01T06:10:15;26.37;;;19.93;;
10277;SDS011;5184;51.376;7.148;2022-08-01T06:12:42;23.60;;;20.17;;
10277;SDS011;5184;51.376;7.148;2022-08-01T06:15:08;23.23;;;18.77;;
10277;SDS011;5184;51.376;7.148;2022-08-01T06:17:35;22.67;;;18.57;;
10277;SDS011;5184;51.376;7.148;2022-08-01T06:20:02;24.60;;;20.07;;
10277;SDS011;5184;51.376;7.148;2022-08-01T06:22:29;25.37;;;19.60;;
10277;SDS011;5184;51.376;7.148;2022-08-01T06:24:56;23.73;;;18.70;;
10277;SDS011;5184;51.376;7.148;2022-08-01T06:27:23;24.47;;;21.63;;
10277;SDS011;5184;51.376;7.148;2022-08-01T06:29:49;24.10;;;19.23;;
10277;SDS011;5184;51.376;7.148;2022-08-01T06:32:16;26.60;;;19.63;;
10277;SDS011;5184;51.376;7.148;2022-08-01T06:34:42;20.07;;;17.87;;
10277;SDS011;5184;51.376;7.148;2022-08-01T06:37:09;22.00;;;17.17;;
10277;SDS011;5184;51.376;7.148;2022-08-01T06:39:36;21.83;;;17.67;;
10277;SDS011;5184;51.376;7.148;2022-08-01T06:42:04;20.27;;;17.53;;
10277;SDS011;5184;51.376;7.148;2022-08-01T06:44:30;21.60;;;17.87;;
10277;SDS011;5184;51.376;7.148;2022-08-01T06:46:57;23.23;;;18.67;;
10277;SDS011;5184;51.376;7.148;2022-08-01T06:49:24;22.47;;;18.87;;
10277;SDS011;5184;51.376;7.148;2022-08-01T06:51:51;21.13;;;17.13;;
10277;SDS011;5184;51.376;7.148;2022-08-01T06:54:18;24.37;;;20.20;;
10277;SDS011;5184;51.376;7.148;2022-08-01T06:56:45;24.57;;;19.63;;
10277;SDS011;5184;51.376;7.148;2022-08-01T06:59:12;22.30;;;18.83;;
10277;SDS011;5184;51.376;7.148;2022-08-01T07:01:39;21.07;;;18.80;;
10277;SDS011;5184;51.376;7.148;2022-08-01T07:04:06;20.70;;;18.43;;
10277;SDS011;5184;51.376;7.148;2022-08-01T07:06:33;20.30;;;18.20;;
10277;SDS011;5184;51.376;7.148;2022-08-01T07:09:00;21.83;;;18.63;;
10277;SDS011;5184;51.376;7.148;2022-08-01T07:11:26;23.13;;;18.43;;
10277;SDS011;5184;51.376;7.148;2022-08-01T07:13:54;21.00;;;18.60;;
10277;SDS011;5184;51.376;7.148;2022-08-01T07:16:21;19.53;;;17.43;;
10277;SDS011;5184;51.376;7.148;2022-08-01T07:18:48;19.47;;;17.47;;
10277;SDS011;5184;51.376;7.148;2022-08-01T07:21:14;19.37;;;17.37;;
10277;SDS011;5184;51.376;7.148;2022-08-01T07:23:41;18.43;;;16.60;;
10277;SDS011;5184;51.376;7.148;2022-08-01T07:26:08;19.43;;;16.83;;
10277;SDS011;5184;51.376;7.148;2022-08-01T07:28:35;15.80;;;14.13;;
10277;SDS011;5184;51.376;7.148;2022-08-01T07:31:01;13.90;;;12.47;;
10277;SDS011;5184;51.376;7.148;2022-08-01T07:33:28;12.67;;;11.20;;
10277;SDS011;5184;51.376;7.148;2022-08-01T07:35:55;11.87;;;10.70;;
10277;SDS011;5184;51.376;7.148;2022-08-01T07:38:23;11.10;;;9.87;;
10277;SDS011;5184;51.376;7.148;2022-08-01T07:40:50;9.30;;;8.40;;
10277;SDS011;5184;51.376;7.148;2022-08-01T07:43:17;7.73;;;7.03;;
10277;SDS011;5184;51.376;7.148;2022-08-01T07:45:44;9.77;;;6.97;;
10277;SDS011;5184;51.376;7.148;2022-08-01T07:48:10;7.00;;;6.30;;
10277;SDS011;5184;51.376;7.148;2022-08-01T07:50:37;7.03;;;6.27;;
10277;SDS011;5184;51.376;7.148;2022-08-01T07:53:04;7.73;;;6.60;;
10277;SDS011;5184;51.376;7.148;2022-08-01T07:55:30;7.77;;;6.93;;
10277;SDS011;5184;51.376;7.148;2022-08-01T07:57:58;7.73;;;5.77;;
10277;SDS011;5184;51.376;7.148;2022-08-01T08:00:25;4.80;;;4.30;;
10277;SDS011;5184;51.376;7.148;2022-08-01T08:02:52;4.83;;;3.93;;
10277;SDS011;5184;51.376;7.148;2022-08-01T08:05:20;4.47;;;4.03;;
10277;SDS011;5184;51.376;7.148;2022-08-01T08:07:46;4.93;;;4.43;;
10277;SDS011;5184;51.376;7.148;2022-08-01T08:10:14;6.23;;;4.90;;
10277;SDS011;5184;51.376;7.148;2022-08-01T08:12:40;4.63;;;4.23;;
10277;SDS011;5184;51.376;7.148;2022-08-01T08:15:07;4.90;;;4.40;;
10277;SDS011;5184;51.376;7.148;2022-08-01T08:17:34;5.23;;;4.73;;
10277;SDS011;5184;51.376;7.148;2022-08-01T08:20:01;4.80;;;4.37;;
10277;SDS011;5184;51.376;7.148;2022-08-01T08:22:27;5.10;;;4.60;;
10277;SDS011;5184;51.376;7.148;2022-08-01T08:24:54;5.37;;;4.87;;
10277;SDS011;5184;51.376;7.148;2022-08-01T08:27:20;5.77;;;4.93;;
10277;SDS011;5184;51.376;7.148;2022-08-01T08:29:47;6.53;;;5.93;;
10277;SDS011;5184;51.376;7.148;2022-08-01T08:32:13;8.77;;;7.87;;
10277;SDS011;5184;51.376;7.148;2022-08-01T08:34:41;7.47;;;6.87;;
10277;SDS011;5184;51.376;7.148;2022-08-01T08:37:07;8.00;;;7.20;;
10277;SDS011;5184;51.376;7.148;2022-08-01T08:39:34;7.47;;;6.80;;
10277;SDS011;5184;51.376;7.148;2022-08-01T08:42:01;7.90;;;7.07;;
10277;SDS011;5184;51.376;7.148;2022-08-01T08:44:27;6.60;;;6.00;;
10277;SDS011;5184;51.376;7.148;2022-08-01T08:46:54;7.03;;;6.43;;
10277;SDS011;5184;51.376;7.148;2022-08-01T08:49:22;6.90;;;6.30;;
10277;SDS011;5184;51.376;7.148;2022-08-01T08:51:49;7.53;;;6.77;;
10277;SDS011;5184;51.376;7.148;2022-08-01T08:54:16;7.20;;;6.23;;
10277;SDS011;5184;51.376;7.148;2022-08-01T08:56:43;6.33;;;5.73;;
10277;SDS011;5184;51.376;7.148;2022-08-01T08:59:11;7.33;;;6.17;;
10277;SDS011;5184;51.376;7.148;2022-08-01T09:01:37;6.30;;;5.70;;
10277;SDS011;5184;51.376;7.148;2022-08-01T09:04:04;7.57;;;5.77;;
10277;SDS011;5184;51.376;7.148;2022-08-01T09:06:31;5.83;;;5.23;;
10277;SDS011;5184;51.376;7.148;2022-08-01T09:08:57;6.13;;;5.20;;
10277;SDS011;5184;51.376;7.148;2022-08-01T09:11:24;5.90;;;5.40;;
10277;SDS011;5184;51.376;7.148;2022-08-01T09:16:27;6.30;;;5.03;;
10277;SDS011;5184;51.376;7.148;2022-08-01T09:18:54;6.20;;;4.97;;
10277;SDS011;5184;51.376;7.148;2022-08-01T09:21:21;5.50;;;5.00;;
10277;SDS011;5184;51.376;7.148;2022-08-01T09:23:50;5.43;;;4.90;;
10277;SDS011;5184;51.376;7.148;2022-08-01T09:26:18;5.03;;;4.63;;
10277;SDS011;5184;51.376;7.148;2022-08-01T09:28:45;5.17;;;4.70;;
10277;SDS011;5184;51.376;7.148;2022-08-01T09:31:12;4.80;;;4.30;;
10277;SDS011;5184;51.376;7.148;2022-08-01T09:36:21;5.90;;;5.40;;
10277;SDS011;5184;51.376;7.148;2022-08-01T09:38:48;6.30;;;5.80;;
10277;SDS011;5184;51.376;7.148;2022-08-01T09:41:15;5.50;;;5.00;;
10277;SDS011;5184;51.376;7.148;2022-08-01T09:43:47;4.57;;;4.27;;
10277;SDS011;5184;51.376;7.148;2022-08-01T09:46:15;5.67;;;5.17;;
10277;SDS011;5184;51.376;7.148;2022-08-01T09:48:54;5.40;;;4.90;;
10277;SDS011;5184;51.376;7.148;2022-08-01T09:51:14;4.97;;;4.50;;
10277;SDS011;5184;51.376;7.148;2022-08-01T09:53:42;5.10;;;4.70;;
10277;SDS011;5184;51.376;7.148;2022-08-01T09:56:09;5.50;;;5.00;;
10277;SDS011;5184;51.376;7.148;2022-08-01T09:58:56;7.67;;;5.87;;
10277;SDS011;5184;51.376;7.148;2022-08-01T10:01:21;5.73;;;5.23;;
10277;SDS011;5184;51.376;7.148;2022-08-01T10:04:21;5.50;;;4.93;;
10277;SDS011;5184;51.376;7.148;2022-08-01T10:06:32;4.40;;;4.00;;
10277;SDS011;5184;51.376;7.148;2022-08-01T10:09:00;3.43;;;3.13;;
10277;SDS011;5184;51.376;7.148;2022-08-01T10:11:26;3.57;;;2.97;;
10277;SDS011;5184;51.376;7.148;2022-08-01T10:13:53;3.87;;;2.90;;
10277;SDS011;5184;51.376;7.148;2022-08-01T10:16:19;2.83;;;2.60;;
10277;SDS011;5184;51.376;7.148;2022-08-01T10:18:46;3.80;;;2.90;;
10277;SDS011;5184;51.376;7.148;2022-08-01T10:21:13;3.13;;;2.83;;
10277;SDS011;5184;51.376;7.148;2022-08-01T10:23:40;3.73;;;2.90;;
10277;SDS011;5184;51.376;7.148;2022-08-01T10:26:08;2.57;;;2.37;;
10277;SDS011;5184;51.376;7.148;2022-08-01T10:28:35;2.80;;;2.40;;
10277;SDS011;5184;51.376;7.148;2022-08-01T10:31:02;3.43;;;2.37;;
10277;SDS011;5184;51.376;7.148;2022-08-01T10:33:30;3.80;;;2.23;;
10277;SDS011;5184;51.376;7.148;2022-08-01T10:35:57;2.50;;;2.13;;
10277;SDS011;5184;51.376;7.148;2022-08-01T10:38:23;4.17;;;2.60;;
10277;SDS011;5184;51.376;7.148;2022-08-01T10:40:49;2.40;;;2.20;;
10277;SDS011;5184;51.376;7.148;2022-08-01T10:43:16;3.40;;;2.13;;
10277;SDS011;5184;51.376;7.148;2022-08-01T10:45:43;2.40;;;2.20;;
10277;SDS011;5184;51.376;7.148;2022-08-01T10:48:18;3.63;;;2.40;;
10277;SDS011;5184;51.376;7.148;2022-08-01T10:50:48;2.63;;;2.23;;
10277;SDS011;5184;51.376;7.148;2022-08-01T10:53:15;2.30;;;2.00;;
10277;SDS011;5184;51.376;7.148;2022-08-01T10:55:52;2.33;;;2.13;;
10277;SDS011;5184;51.376;7.148;2022-08-01T10:58:30;2.47;;;2.23;;
10277;SDS011;5184;51.376;7.148;2022-08-01T11:01:13;3.30;;;3.03;;
10277;SDS011;5184;51.376;7.148;2022-08-01T11:03:57;5.07;;;3.23;;
10277;SDS011;5184;51.376;7.148;2022-08-01T11:06:26;3.70;;;3.23;;
10277;SDS011;5184;51.376;7.148;2022-08-01T11:08:54;3.50;;;3.20;;
10277;SDS011;5184;51.376;7.148;2022-08-01T11:11:21;3.50;;;2.90;;
10277;SDS011;5184;51.376;7.148;2022-08-01T11:16:34;4.00;;;3.53;;
10277;SDS011;5184;51.376;7.148;2022-08-01T11:19:00;3.20;;;2.90;;
10277;SDS011;5184;51.376;7.148;2022-08-01T11:24:05;3.03;;;2.83;;
10277;SDS011;5184;51.376;7.148;2022-08-01T11:26:33;2.50;;;2.30;;
10277;SDS011;5184;51.376;7.148;2022-08-01T11:31:36;2.30;;;2.10;;
10277;SDS011;5184;51.376;7.148;2022-08-01T11:34:03;2.37;;;2.17;;
10277;SDS011;5184;51.376;7.148;2022-08-01T11:36:29;2.50;;;2.30;;
10277;SDS011;5184;51.376;7.148;2022-08-01T11:39:12;1.90;;;1.80;;
10277;SDS011;5184;51.376;7.148;2022-08-01T11:41:38;2.57;;;2.37;;
10277;SDS011;5184;51.376;7.148;2022-08-01T11:44:06;3.13;;;2.67;;
10277;SDS011;5184;51.376;7.148;2022-08-01T11:51:48;2.90;;;2.60;;
10277;SDS011;5184;51.376;7.148;2022-08-01T11:54:15;2.80;;;2.50;;
10277;SDS011;5184;51.376;7.148;2022-08-01T11:56:42;1.90;;;1.70;;
10277;SDS011;5184;51.376;7.148;2022-08-01T11:59:10;1.60;;;1.50;;
10277;SDS011;5184;51.376;7.148;2022-08-01T12:01:36;1.73;;;1.30;;
10277;SDS011;5184;51.376;7.148;2022-08-01T12:04:03;1.57;;;1.20;;
10277;SDS011;5184;51.376;7.148;2022-08-01T12:06:30;1.53;;;1.10;;
10277;SDS011;5184;51.376;7.148;2022-08-01T12:09:14;1.77;;;1.27;;
10277;SDS011;5184;51.376;7.148;2022-08-01T12:11:23;2.60;;;1.13;;
10277;SDS011;5184;51.376;7.148;2022-08-01T12:13:50;1.53;;;1.30;;
10277;SDS011;5184;51.376;7.148;2022-08-01T12:16:17;2.40;;;1.40;;
10277;SDS011;5184;51.376;7.148;2022-08-01T12:18:45;1.60;;;1.50;;
10277;SDS011;5184;51.376;7.148;2022-08-01T12:21:11;1.60;;;1.50;;
10277;SDS011;5184;51.376;7.148;2022-08-01T12:23:38;2.77;;;1.60;;
10277;SDS011;5184;51.376;7.148;2022-08-01T12:26:05;2.17;;;1.57;;
10277;SDS011;5184;51.376;7.148;2022-08-01T12:28:38;1.73;;;1.63;;
10277;SDS011;5184;51.376;7.148;2022-08-01T12:30:58;2.00;;;1.90;;
10277;SDS011;5184;51.376;7.148;2022-08-01T12:33:25;1.77;;;1.67;;
10277;SDS011;5184;51.376;7.148;2022-08-01T12:35:53;1.60;;;1.50;;
10277;SDS011;5184;51.376;7.148;2022-08-01T12:38:20;2.13;;;1.93;;
10277;SDS011;5184;51.376;7.148;2022-08-01T12:40:48;1.70;;;1.60;;
10277;SDS011;5184;51.376;7.148;2022-08-01T12:43:16;1.77;;;1.67;;
10277;SDS011;5184;51.376;7.148;2022-08-01T12:45:43;1.77;;;1.67;;
10277;SDS011;5184;51.376;7.148;2022-08-01T12:48:11;1.80;;;1.70;;
10277;SDS011;5184;51.376;7.148;2022-08-01T12:50:37;1.70;;;1.50;;
10277;SDS011;5184;51.376;7.148;2022-08-01T12:53:03;1.93;;;1.40;;
10277;SDS011;5184;51.376;7.148;2022-08-01T12:55:30;1.73;;;1.40;;
10277;SDS011;5184;51.376;7.148;2022-08-01T13:00:30;2.17;;;1.40;;
10277;SDS011;5184;51.376;7.148;2022-08-01T13:08:11;2.10;;;2.00;;
10277;SDS011;5184;51.376;7.148;2022-08-01T13:10:38;2.07;;;1.97;;
10277;SDS011;5184;51.376;7.148;2022-08-01T13:13:05;2.63;;;1.97;;
10277;SDS011;5184;51.376;7.148;2022-08-01T13:15:33;1.87;;;1.77;;
10277;SDS011;5184;51.376;7.148;2022-08-01T13:17:59;1.93;;;1.80;;
10277;SDS011;5184;51.376;7.148;2022-08-01T13:20:28;1.87;;;1.77;;
10277;SDS011;5184;51.376;7.148;2022-08-01T13:25:46;2.10;;;1.90;;
10277;SDS011;5184;51.376;7.148;2022-08-01T13:28:15;1.97;;;1.77;;
10277;SDS011;5184;51.376;7.148;2022-08-01T13:30:50;2.00;;;1.90;;
10277;SDS011;5184;51.376;7.148;2022-08-01T13:33:09;2.10;;;1.90;;
10277;SDS011;5184;51.376;7.148;2022-08-01T13:35:35;2.17;;;1.60;;
10277;SDS011;5184;51.376;7.148;2022-08-01T13:38:02;2.20;;;1.63;;
10277;SDS011;5184;51.376;7.148;2022-08-01T13:40:28;1.60;;;1.50;;
10277;SDS011;5184;51.376;7.148;2022-08-01T13:42:55;2.50;;;1.80;;
10277;SDS011;5184;51.376;7.148;2022-08-01T13:45:22;1.30;;;1.20;;
10277;SDS011;5184;51.376;7.148;2022-08-01T13:47:49;1.40;;;1.30;;
10277;SDS011;5184;51.376;7.148;2022-08-01T13:50:16;1.60;;;1.50;;
10277;SDS011;5184;51.376;7.148;2022-08-01T13:52:43;1.93;;;1.40;;
10277;SDS011;5184;51.376;7.148;2022-08-01T13:55:10;1.60;;;1.30;;
10277;SDS011;5184;51.376;7.148;2022-08-01T13:57:36;1.57;;;1.47;;
10277;SDS011;5184;51.376;7.148;2022-08-01T14:00:04;2.03;;;1.43;;
10277;SDS011;5184;51.376;7.148;2022-08-01T14:02:30;1.50;;;1.37;;
10277;SDS011;5184;51.376;7.148;2022-08-01T14:04:56;1.50;;;1.40;;
10277;SDS011;5184;51.376;7.148;2022-08-01T14:07:24;1.53;;;1.43;;
10277;SDS011;5184;51.376;7.148;2022-08-01T14:09:51;1.50;;;1.40;;
10277;SDS011;5184;51.376;7.148;2022-08-01T14:12:18;2.80;;;1.77;;
10277;SDS011;5184;51.376;7.148;2022-08-01T14:14:46;1.80;;;1.70;;
10277;SDS011;5184;51.376;7.148;2022-08-01T14:17:12;2.13;;;1.67;;
10277;SDS011;5184;51.376;7.148;2022-08-01T14:19:39;1.70;;;1.60;;
10277;SDS011;5184;51.376;7.148;2022-08-01T14:22:06;2.00;;;1.90;;
10277;SDS011;5184;51.376;7.148;2022-08-01T14:24:32;1.87;;;1.77;;
10277;SDS011;5184;51.376;7.148;2022-08-01T14:26:59;1.90;;;1.80;;
10277;SDS011;5184;51.376;7.148;2022-08-01T14:29:26;2.00;;;1.90;;
10277;SDS011;5184;51.376;7.148;2022-08-01T14:31:53;1.93;;;1.80;;
10277;SDS011;5184;51.376;7.148;2022-08-01T14:34:20;1.90;;;1.80;;
10277;SDS011;5184;51.376;7.148;2022-08-01T14:36:47;2.37;;;1.80;;
10277;SDS011;5184;51.376;7.148;2022-08-01T14:39:13;1.60;;;1.50;;
10277;SDS011;5184;51.376;7.148;2022-08-01T14:41:40;1.83;;;1.73;;
10277;SDS011;5184;51.376;7.148;2022-08-01T14:44:06;1.90;;;1.70;;
10277;SDS011;5184;51.376;7.148;2022-08-01T14:46:34;2.00;;;1.90;;
10277;SDS011;5184;51.376;7.148;2022-08-01T14:49:01;1.87;;;1.67;;
10277;SDS011;5184;51.376;7.148;2022-08-01T14:51:28;4.03;;;1.97;;
10277;SDS011;5184;51.376;7.148;2022-08-01T14:53:55;1.60;;;1.50;;
10277;SDS011;5184;51.376;7.148;2022-08-01T14:56:21;1.83;;;1.70;;
10277;SDS011;5184;51.376;7.148;2022-08-01T14:58:48;1.60;;;1.50;;
10277;SDS011;5184;51.376;7.148;2022-08-01T15:01:15;1.80;;;1.70;;
10277;SDS011;5184;51.376;7.148;2022-08-01T15:03:42;1.67;;;1.57;;
10277;SDS011;5184;51.376;7.148;2022-08-01T15:06:10;2.23;;;1.67;;
10277;SDS011;5184;51.376;7.148;2022-08-01T15:08:37;3.27;;;1.60;;
10277;SDS011;5184;51.376;7.148;2022-08-01T15:11:04;1.90;;;1.53;;
10277;SDS011;5184;51.376;7.148;2022-08-01T15:13:30;2.37;;;1.50;;
10277;SDS011;5184;51.376;7.148;2022-08-01T15:15:57;1.60;;;1.50;;
10277;SDS011;5184;51.376;7.148;2022-08-01T15:18:24;2.03;;;1.80;;
10277;SDS011;5184;51.376;7.148;2022-08-01T15:20:50;2.37;;;1.60;;